createdAt,value
2018-01-21T00:06:21.050Z,0
2018-01-21T00:16:20.990Z,0
2018-01-21T00:26:21.027Z,0
2018-01-21T00:36:20.982Z,0
2018-01-21T00:46:21.074Z,0
2018-01-21T00:56:21.072Z,0
2018-01-21T01:06:21.089Z,4
2018-01-21T01:16:21.021Z,0
2018-01-21T01:26:29.184Z,0
2018-01-21T01:36:29.223Z,0
2018-01-21T01:46:21.408Z,0
2018-01-21T01:56:22.099Z,0
2018-01-21T02:06:21.036Z,0
2018-01-21T02:16:21.094Z,0
2018-01-21T02:26:21.032Z,0
2018-01-21T02:36:21.127Z,0
2018-01-21T02:46:22.086Z,0
2018-01-21T02:56:21.159Z,0
2018-01-21T03:06:21.132Z,0
2018-01-21T03:16:21.184Z,0
2018-01-21T03:26:21.155Z,4
2018-01-21T03:36:21.242Z,0
2018-01-21T03:46:21.172Z,0
2018-01-21T03:56:21.236Z,4
2018-01-21T04:06:21.178Z,0
2018-01-21T04:16:21.123Z,0
2018-01-21T04:26:21.207Z,0
2018-01-21T04:36:21.175Z,0
2018-01-21T04:46:21.271Z,0
2018-01-21T04:56:21.188Z,0
2018-01-21T05:06:21.246Z,0
2018-01-21T05:16:21.217Z,0
2018-01-21T05:26:21.255Z,0
2018-01-21T05:36:21.252Z,0
2018-01-21T05:46:21.656Z,0
2018-01-21T05:56:21.257Z,0
2018-01-21T06:06:21.247Z,0
2018-01-21T06:16:21.304Z,4
2018-01-21T06:26:21.225Z,4
2018-01-21T06:36:21.315Z,4
2018-01-21T06:46:21.274Z,4
2018-01-21T06:56:21.357Z,8
2018-01-21T07:06:21.304Z,32
2018-01-21T07:16:21.377Z,100
2018-01-21T07:26:21.322Z,276
2018-01-21T07:36:21.284Z,536
2018-01-21T07:46:21.389Z,752
2018-01-21T07:56:21.286Z,1120
2018-01-21T08:06:21.416Z,1872
2018-01-21T08:16:21.313Z,1132
2018-01-21T08:26:21.404Z,2472
2018-01-21T08:36:21.373Z,1656
2018-01-21T08:46:21.431Z,2512
2018-01-21T08:56:21.807Z,2924
2018-01-21T09:06:21.426Z,4224
2018-01-21T09:16:21.427Z,3404
2018-01-21T09:26:21.534Z,3808
2018-01-21T09:36:21.534Z,4352
2018-01-21T09:46:21.445Z,5164
2018-01-21T09:56:21.486Z,5964
2018-01-21T10:06:21.466Z,6044
2018-01-21T10:16:21.464Z,8104
2018-01-21T10:26:21.399Z,5368
2018-01-21T10:36:21.518Z,5792
2018-01-21T10:46:21.522Z,7492
2018-01-21T10:56:21.727Z,5580
2018-01-21T11:06:21.577Z,6632
2018-01-21T11:16:21.608Z,5632
2018-01-21T11:26:21.477Z,6588
2018-01-21T11:36:21.699Z,6920
2018-01-21T11:46:21.551Z,4292
2018-01-21T11:56:21.506Z,4820
2018-01-21T12:06:21.493Z,5060
2018-01-21T12:16:21.509Z,4956
2018-01-21T12:26:21.676Z,5452
2018-01-21T12:36:21.599Z,6348
2018-01-21T12:46:21.656Z,4984
2018-01-21T12:56:21.589Z,5208
2018-01-21T13:06:21.653Z,6908
2018-01-21T13:16:21.598Z,3136
2018-01-21T13:26:21.704Z,3892
2018-01-21T13:36:21.868Z,3056
2018-01-21T13:46:21.770Z,1844
2018-01-21T13:56:21.646Z,2008
2018-01-21T14:06:21.723Z,4424
2018-01-21T14:16:21.697Z,2812
2018-01-21T14:26:21.640Z,2096
2018-01-21T14:36:21.682Z,2072
2018-01-21T14:46:21.646Z,1800
2018-01-21T14:56:21.816Z,1676
2018-01-21T15:06:21.831Z,1076
2018-01-21T15:16:51.633Z,948
2018-01-21T15:27:13.148Z,716
2018-01-21T15:36:51.670Z,432
2018-01-21T15:46:51.625Z,300
2018-01-21T15:56:51.683Z,152
2018-01-21T16:06:51.638Z,60
2018-01-21T16:16:51.705Z,16
2018-01-21T16:26:51.708Z,4
2018-01-21T16:36:51.683Z,4
2018-01-21T16:46:51.664Z,4
2018-01-21T16:56:56.184Z,4
2018-01-21T17:06:51.667Z,4
2018-01-21T17:16:52.037Z,4
2018-01-21T17:26:51.966Z,4
2018-01-21T17:36:51.980Z,4
2018-01-21T17:46:51.696Z,4
2018-01-21T17:56:51.607Z,4
2018-01-21T18:06:51.613Z,4
2018-01-21T18:16:51.604Z,4
2018-01-21T18:26:51.591Z,4
2018-01-21T18:36:51.719Z,4
2018-01-21T18:46:52.990Z,4
2018-01-21T18:56:51.550Z,4
2018-01-21T19:06:51.644Z,4
2018-01-21T19:16:51.533Z,4
2018-01-21T19:26:51.654Z,4
2018-01-21T19:36:51.763Z,4
2018-01-21T19:46:51.600Z,4
2018-01-21T19:56:51.512Z,4
2018-01-21T20:06:51.700Z,4
2018-01-21T20:16:51.693Z,4
2018-01-21T20:26:51.776Z,8
2018-01-21T20:36:51.992Z,8
2018-01-21T20:46:51.875Z,4
2018-01-21T20:56:51.531Z,4
2018-01-21T21:06:51.693Z,0
2018-01-21T21:16:52.679Z,4
2018-01-21T21:26:51.442Z,4
2018-01-21T21:36:51.605Z,4
2018-01-21T21:46:51.715Z,4
2018-01-21T21:56:51.611Z,0
2018-01-21T22:06:51.581Z,4
2018-01-21T22:16:51.603Z,4
2018-01-21T22:26:51.569Z,4
2018-01-21T22:36:51.659Z,4
2018-01-21T22:46:51.764Z,4
2018-01-21T22:56:51.597Z,4
2018-01-21T23:06:51.636Z,4
2018-01-21T23:16:51.673Z,4
2018-01-21T23:26:51.558Z,4
2018-01-21T23:36:51.482Z,0
2018-01-21T23:46:51.572Z,0
2018-01-21T23:56:51.471Z,0
